createdAt,value
2023-05-25T00:02:15.339Z,14.42
2023-05-25T00:04:43.287Z,14.39
2023-05-25T00:07:10.995Z,14.37
2023-05-25T00:09:38.611Z,14.37
2023-05-25T00:12:07.347Z,14.36
2023-05-25T00:14:34.938Z,14.34
2023-05-25T00:17:04.303Z,14.32
2023-05-25T00:19:34.599Z,14.31
2023-05-25T00:22:02.456Z,14.30
2023-05-25T00:24:30.976Z,14.27
2023-05-25T00:26:58.783Z,14.25
2023-05-25T00:29:26.778Z,14.21
2023-05-25T00:31:54.574Z,14.14
2023-05-25T00:34:22.623Z,14.10
2023-05-25T00:36:50.400Z,14.08
2023-05-25T00:39:21.703Z,14.06
2023-05-25T00:41:50.020Z,14.03
2023-05-25T00:44:21.472Z,13.97
2023-05-25T00:46:52.142Z,13.92
2023-05-25T00:49:23.179Z,13.86
2023-05-25T00:51:52.967Z,13.82
2023-05-25T00:54:20.611Z,13.75
2023-05-25T00:56:57.528Z,13.72
2023-05-25T00:59:44.495Z,13.66
2023-05-25T01:02:16.996Z,13.61
2023-05-25T01:04:59.649Z,13.55
2023-05-25T01:07:31.044Z,13.54
2023-05-25T01:10:04.786Z,13.48
2023-05-25T01:12:39.232Z,13.43
2023-05-25T01:15:09.116Z,13.42
2023-05-25T01:17:38.229Z,13.44
2023-05-25T01:20:13.188Z,13.42
2023-05-25T01:22:55.534Z,13.38
2023-05-25T01:25:40.103Z,13.41
2023-05-25T01:28:26.533Z,13.43
2023-05-25T01:30:57.343Z,13.42
2023-05-25T01:33:26.249Z,13.42
2023-05-25T01:35:54.199Z,13.45
2023-05-25T01:38:21.828Z,13.46
2023-05-25T01:40:49.374Z,13.48
2023-05-25T01:43:17.394Z,13.53
2023-05-25T01:45:45.154Z,13.48
2023-05-25T01:48:31.622Z,13.48
2023-05-25T01:51:15.461Z,13.54
2023-05-25T01:53:51.631Z,13.57
2023-05-25T01:56:21.526Z,13.61
2023-05-25T01:58:51.668Z,13.65
2023-05-25T02:01:22.650Z,13.67
2023-05-25T02:03:51.194Z,13.71
2023-05-25T02:06:19.031Z,13.72
2023-05-25T02:08:46.635Z,13.71
2023-05-25T02:11:14.786Z,13.72
2023-05-25T02:13:42.621Z,13.74
2023-05-25T02:16:10.288Z,13.73
2023-05-25T02:18:37.898Z,13.75
2023-05-25T02:21:05.501Z,13.73
2023-05-25T02:23:33.059Z,13.73
2023-05-25T02:26:00.614Z,13.70
2023-05-25T02:28:28.792Z,13.70
2023-05-25T02:30:57.826Z,13.62
2023-05-25T02:33:25.670Z,13.55
2023-05-25T02:35:53.876Z,13.51
2023-05-25T02:38:21.421Z,13.44
2023-05-25T02:40:49.068Z,13.40
2023-05-25T02:43:16.621Z,13.31
2023-05-25T02:45:44.820Z,13.24
2023-05-25T02:48:13.367Z,13.20
2023-05-25T02:50:42.898Z,13.10
2023-05-25T02:53:14.078Z,13.03
2023-05-25T02:55:43.482Z,12.98
2023-05-25T02:58:16.609Z,12.95
2023-05-25T03:00:55.353Z,12.94
2023-05-25T03:03:22.964Z,12.90
2023-05-25T03:05:51.612Z,12.89
2023-05-25T03:08:19.439Z,12.87
2023-05-25T03:10:46.972Z,12.83
2023-05-25T03:13:14.762Z,12.80
2023-05-25T03:15:42.574Z,12.77
2023-05-25T03:18:11.586Z,12.76
2023-05-25T03:20:41.437Z,12.76
2023-05-25T03:23:09.028Z,12.76
2023-05-25T03:25:37.497Z,12.80
2023-05-25T03:28:05.742Z,12.81
2023-05-25T03:30:33.437Z,12.84
2023-05-25T03:33:01.135Z,12.80
2023-05-25T03:35:34.214Z,12.85
2023-05-25T03:38:02.051Z,12.85
2023-05-25T03:40:29.697Z,12.82
2023-05-25T03:42:57.300Z,12.81
2023-05-25T03:45:24.880Z,12.83
2023-05-25T03:47:52.437Z,12.85
2023-05-25T03:50:21.711Z,12.80
2023-05-25T03:52:49.421Z,12.77
2023-05-25T03:55:17.778Z,12.74
2023-05-25T03:57:45.995Z,12.73
2023-05-25T04:00:14.547Z,12.72
2023-05-25T04:02:43.591Z,12.68
2023-05-25T04:05:11.188Z,12.59
2023-05-25T04:07:38.794Z,12.58
2023-05-25T04:10:07.560Z,12.51
2023-05-25T04:12:35.178Z,12.50
2023-05-25T04:15:04.182Z,12.53
2023-05-25T04:17:35.802Z,12.56
2023-05-25T04:20:05.246Z,12.58
2023-05-25T04:22:33.537Z,12.63
2023-05-25T04:25:02.255Z,12.64
2023-05-25T04:27:29.813Z,12.63
2023-05-25T04:29:58.785Z,12.64
2023-05-25T04:32:57.551Z,12.64
2023-05-25T04:35:37.708Z,12.64
2023-05-25T04:38:07.013Z,12.63
2023-05-25T04:40:35.549Z,12.60
2023-05-25T04:43:05.082Z,12.57
2023-05-25T04:45:33.296Z,12.55
2023-05-25T04:48:03.017Z,12.59
2023-05-25T04:50:30.745Z,12.59
2023-05-25T04:52:58.282Z,12.58
2023-05-25T04:55:25.987Z,12.58
2023-05-25T04:57:54.880Z,12.56
2023-05-25T05:00:22.659Z,12.64
2023-05-25T05:02:56.600Z,12.71
2023-05-25T05:05:24.755Z,12.72
2023-05-25T05:07:54.130Z,12.73
2023-05-25T05:10:22.593Z,12.79
2023-05-25T05:12:54.919Z,12.74
2023-05-25T05:15:22.624Z,12.75
2023-05-25T05:17:51.050Z,12.74
2023-05-25T05:20:20.905Z,12.76
2023-05-25T05:22:49.030Z,12.84
2023-05-25T05:25:17.892Z,12.93
2023-05-25T05:27:46.538Z,12.96
2023-05-25T05:30:19.163Z,13.06
2023-05-25T05:32:47.100Z,13.11
2023-05-25T05:35:15.916Z,13.16
2023-05-25T05:37:47.765Z,13.19
2023-05-25T05:40:15.538Z,13.16
2023-05-25T05:42:43.476Z,13.20
2023-05-25T05:45:13.304Z,13.22
2023-05-25T05:47:40.965Z,13.28
2023-05-25T05:50:09.278Z,13.36
2023-05-25T05:52:38.354Z,13.38
2023-05-25T05:55:06.512Z,13.41
2023-05-25T05:57:34.469Z,13.50
2023-05-25T06:00:03.883Z,13.55
2023-05-25T06:02:31.762Z,13.58
2023-05-25T06:04:59.566Z,13.61
2023-05-25T06:07:28.936Z,13.68
2023-05-25T06:09:57.620Z,13.77
2023-05-25T06:12:25.376Z,13.81
2023-05-25T06:14:53.239Z,13.76
2023-05-25T06:17:21.473Z,13.74
2023-05-25T06:19:49.967Z,13.82
2023-05-25T06:22:17.673Z,13.91
2023-05-25T06:24:45.238Z,13.99
2023-05-25T06:27:14.342Z,14.07
2023-05-25T06:29:42.158Z,14.09
2023-05-25T06:32:10.936Z,14.16
2023-05-25T06:34:39.534Z,14.21
2023-05-25T06:37:07.702Z,14.24
2023-05-25T06:39:36.507Z,14.30
2023-05-25T06:45:07.615Z,14.26
2023-05-25T06:47:35.978Z,14.30
2023-05-25T06:50:04.418Z,14.34
2023-05-25T06:52:32.064Z,14.41
2023-05-25T06:54:59.586Z,14.44
2023-05-25T06:57:27.228Z,14.43
2023-05-25T06:59:54.773Z,14.51
2023-05-25T07:02:22.344Z,14.57
2023-05-25T07:04:49.921Z,14.62
2023-05-25T07:07:17.472Z,14.66
2023-05-25T07:09:45.796Z,14.73
2023-05-25T07:12:14.533Z,14.83
2023-05-25T07:14:42.064Z,14.90
2023-05-25T07:17:10.497Z,14.99
2023-05-25T07:19:38.052Z,15.05
2023-05-25T07:22:05.960Z,15.04
2023-05-25T07:24:33.529Z,15.21
2023-05-25T07:27:02.369Z,15.42
2023-05-25T07:29:29.912Z,15.63
2023-05-25T07:31:57.478Z,15.81
2023-05-25T07:34:27.159Z,16.00
2023-05-25T07:36:55.607Z,16.22
2023-05-25T07:39:23.130Z,16.42
2023-05-25T07:41:50.874Z,16.56
2023-05-25T07:44:18.435Z,16.52
2023-05-25T07:46:46.077Z,16.57
2023-05-25T07:49:16.155Z,16.65
2023-05-25T07:51:45.609Z,16.80
2023-05-25T07:54:13.241Z,16.89
2023-05-25T07:56:40.901Z,17.00
2023-05-25T07:59:08.529Z,17.09
2023-05-25T08:01:36.776Z,17.16
2023-05-25T08:04:04.453Z,17.21
2023-05-25T08:06:34.351Z,17.30
2023-05-25T08:09:04.860Z,17.37
2023-05-25T08:11:32.519Z,17.45
2023-05-25T08:14:00.560Z,17.43
2023-05-25T08:16:28.334Z,17.46
2023-05-25T08:18:56.048Z,17.40
2023-05-25T08:21:24.702Z,17.40
2023-05-25T08:23:53.899Z,17.52
2023-05-25T08:28:53.325Z,17.62
2023-05-25T08:31:20.972Z,17.69
2023-05-25T08:33:48.713Z,17.84
2023-05-25T08:36:16.367Z,17.97
2023-05-25T08:38:43.898Z,18.03
2023-05-25T08:41:13.163Z,18.05
2023-05-25T08:43:42.030Z,18.03
2023-05-25T08:46:09.920Z,18.12
2023-05-25T08:48:42.327Z,18.22
2023-05-25T08:51:16.225Z,18.32
2023-05-25T08:53:44.921Z,18.38
2023-05-25T08:56:20.579Z,18.41
2023-05-25T08:59:15.597Z,18.45
2023-05-25T09:01:51.244Z,18.36
2023-05-25T09:04:21.132Z,18.25
2023-05-25T09:07:05.705Z,18.10
2023-05-25T09:09:38.643Z,18.14
2023-05-25T09:12:07.451Z,18.18
2023-05-25T09:14:37.756Z,18.19
2023-05-25T09:17:05.598Z,18.22
2023-05-25T09:19:35.125Z,18.09
2023-05-25T09:22:15.038Z,18.16
2023-05-25T09:24:45.299Z,18.22
2023-05-25T09:27:17.659Z,18.25
2023-05-25T09:29:52.251Z,18.38
2023-05-25T09:32:20.181Z,18.41
2023-05-25T09:34:48.222Z,18.54
2023-05-25T09:37:19.446Z,18.63
2023-05-25T09:39:47.926Z,18.80
2023-05-25T09:42:16.813Z,18.90
2023-05-25T09:44:44.672Z,19.11
2023-05-25T09:47:13.923Z,19.32
2023-05-25T09:49:44.316Z,19.57
2023-05-25T09:52:13.231Z,19.82
2023-05-25T09:54:48.280Z,20.04
2023-05-25T09:57:16.893Z,20.27
2023-05-25T09:59:45.351Z,20.48
2023-05-25T10:02:14.487Z,20.63
2023-05-25T10:04:42.121Z,20.68
2023-05-25T10:07:09.811Z,20.68
2023-05-25T10:09:43.021Z,20.78
2023-05-25T10:12:11.679Z,20.94
2023-05-25T10:14:40.437Z,21.05
2023-05-25T10:17:11.473Z,21.18
2023-05-25T10:19:52.526Z,21.23
2023-05-25T10:22:36.254Z,21.32
2023-05-25T10:25:10.263Z,21.42
2023-05-25T10:27:59.806Z,21.35
2023-05-25T10:30:27.814Z,21.32
2023-05-25T10:32:56.942Z,21.26
2023-05-25T10:35:25.291Z,21.24
2023-05-25T10:37:54.624Z,21.29
2023-05-25T10:40:23.372Z,21.34
2023-05-25T10:42:51.848Z,21.30
2023-05-25T10:45:20.438Z,21.30
2023-05-25T10:47:48.720Z,21.31
2023-05-25T10:50:27.145Z,21.22
2023-05-25T10:53:12.037Z,21.25
2023-05-25T10:55:54.622Z,21.32
2023-05-25T10:58:23.688Z,21.41
2023-05-25T11:01:08.042Z,21.48
2023-05-25T11:03:45.266Z,21.42
2023-05-25T11:06:23.283Z,21.46
2023-05-25T11:09:02.560Z,21.54
2023-05-25T11:11:48.626Z,21.64
2023-05-25T11:14:31.027Z,21.73
2023-05-25T11:17:18.421Z,21.83
2023-05-25T11:19:51.093Z,21.88
2023-05-25T11:22:30.316Z,21.94
2023-05-25T11:25:00.556Z,22.01
2023-05-25T11:27:32.196Z,22.12
2023-05-25T11:30:00.230Z,22.31
2023-05-25T11:32:29.176Z,22.53
2023-05-25T11:34:58.230Z,22.67
2023-05-25T11:37:31.353Z,22.83
2023-05-25T11:39:59.307Z,22.89
2023-05-25T11:42:27.707Z,22.96
2023-05-25T11:44:56.180Z,23.01
2023-05-25T11:47:25.212Z,23.06
2023-05-25T11:49:56.308Z,23.08
2023-05-25T11:52:24.032Z,23.15
2023-05-25T11:54:53.076Z,23.29
2023-05-25T11:57:24.696Z,23.41
2023-05-25T12:00:24.983Z,23.53
2023-05-25T12:02:53.105Z,23.65
2023-05-25T12:05:20.940Z,23.71
2023-05-25T12:07:48.504Z,23.67
2023-05-25T12:10:16.773Z,23.70
2023-05-25T12:12:52.317Z,23.79
2023-05-25T12:15:24.816Z,23.79
2023-05-25T12:17:54.210Z,23.78
2023-05-25T12:20:22.539Z,23.78
2023-05-25T12:22:50.741Z,23.81
2023-05-25T12:25:24.480Z,23.82
2023-05-25T12:28:12.718Z,23.88
2023-05-25T12:30:40.710Z,24.01
2023-05-25T12:33:08.388Z,24.12
2023-05-25T12:35:50.446Z,24.31
2023-05-25T12:38:19.993Z,24.42
2023-05-25T12:40:47.881Z,24.49
2023-05-25T12:43:17.495Z,24.47
2023-05-25T12:45:45.206Z,24.43
2023-05-25T12:48:12.941Z,24.59
2023-05-25T12:51:00.072Z,24.66
2023-05-25T12:53:28.951Z,24.71
2023-05-25T12:56:04.428Z,24.75
2023-05-25T12:58:32.153Z,24.85
2023-05-25T13:01:00.055Z,24.82
2023-05-25T13:03:27.741Z,24.86
2023-05-25T13:06:02.296Z,25.02
2023-05-25T13:08:30.126Z,25.02
2023-05-25T13:10:57.854Z,25.07
2023-05-25T13:13:25.440Z,25.22
2023-05-25T13:15:53.823Z,25.05
2023-05-25T13:18:21.382Z,25.05
2023-05-25T13:20:51.756Z,25.08
2023-05-25T13:23:20.985Z,25.24
2023-05-25T13:25:48.529Z,25.46
2023-05-25T13:28:16.111Z,25.62
2023-05-25T13:30:43.955Z,25.72
2023-05-25T13:33:11.781Z,25.72
2023-05-25T13:35:46.316Z,25.71
2023-05-25T13:38:16.554Z,25.83
2023-05-25T13:40:45.402Z,25.79
2023-05-25T13:43:13.195Z,25.72
2023-05-25T13:45:40.710Z,25.82
2023-05-25T13:48:08.373Z,25.92
2023-05-25T13:50:35.937Z,26.11
2023-05-25T13:53:03.545Z,26.34
2023-05-25T13:55:31.083Z,26.54
2023-05-25T13:57:58.646Z,26.63
2023-05-25T14:00:26.206Z,26.61
2023-05-25T14:02:54.045Z,26.53
2023-05-25T14:05:21.861Z,26.48
2023-05-25T14:07:49.517Z,26.45
2023-05-25T14:10:17.167Z,26.65
2023-05-25T14:12:45.103Z,26.96
2023-05-25T14:15:12.886Z,27.12
2023-05-25T14:17:40.505Z,27.18
2023-05-25T14:20:08.614Z,27.33
2023-05-25T14:22:36.786Z,27.62
2023-05-25T14:25:05.138Z,27.83
2023-05-25T14:27:32.697Z,27.94
2023-05-25T14:30:00.293Z,28.06
2023-05-25T14:32:27.907Z,28.17
2023-05-25T14:34:55.504Z,28.30
2023-05-25T14:37:23.091Z,28.38
2023-05-25T14:39:50.733Z,28.54
2023-05-25T14:42:18.729Z,28.75
2023-05-25T14:44:46.342Z,29.02
2023-05-25T14:47:14.030Z,29.04
2023-05-25T14:49:41.601Z,29.02
2023-05-25T14:52:09.181Z,29.03
2023-05-25T14:54:37.037Z,29.05
2023-05-25T14:57:04.949Z,29.03
2023-05-25T14:59:32.504Z,29.08
2023-05-25T15:02:00.103Z,29.23
2023-05-25T15:04:29.822Z,29.32
2023-05-25T15:06:58.376Z,29.41
2023-05-25T15:09:25.961Z,29.49
2023-05-25T15:11:53.537Z,29.55
2023-05-25T15:14:21.109Z,29.49
2023-05-25T15:16:48.713Z,29.41
2023-05-25T15:19:17.702Z,29.43
2023-05-25T15:21:45.623Z,29.56
2023-05-25T15:24:16.538Z,29.67
2023-05-25T15:26:44.113Z,29.72
2023-05-25T15:29:11.736Z,29.38
2023-05-25T15:31:39.306Z,29.35
2023-05-25T15:34:06.918Z,29.41
2023-05-25T15:36:34.512Z,29.35
2023-05-25T15:39:02.396Z,29.32
2023-05-25T15:41:29.950Z,29.31
2023-05-25T15:44:00.735Z,29.39
2023-05-25T15:46:28.926Z,29.48
2023-05-25T15:48:56.690Z,29.53
2023-05-25T15:51:24.216Z,29.28
2023-05-25T15:53:52.317Z,29.29
2023-05-25T15:56:19.846Z,29.36
2023-05-25T15:58:49.263Z,29.34
2023-05-25T16:01:16.885Z,29.24
2023-05-25T16:03:44.837Z,29.23
2023-05-25T16:06:12.690Z,29.14
2023-05-25T16:08:40.260Z,29.05
2023-05-25T16:11:07.805Z,28.92
2023-05-25T16:13:35.442Z,28.77
2023-05-25T16:16:03.124Z,28.67
2023-05-25T16:18:30.766Z,28.55
2023-05-25T16:20:58.381Z,28.45
2023-05-25T16:23:26.021Z,28.32
2023-05-25T16:25:53.637Z,28.19
2023-05-25T16:28:21.223Z,28.13
2023-05-25T16:30:48.798Z,28.02
2023-05-25T16:33:16.389Z,27.87
2023-05-25T16:35:44.211Z,27.66
2023-05-25T16:38:11.936Z,27.54
2023-05-25T16:40:39.535Z,27.42
2023-05-25T16:43:07.229Z,27.24
2023-05-25T16:45:34.857Z,27.18
2023-05-25T16:48:02.482Z,26.96
2023-05-25T16:50:30.053Z,26.84
2023-05-25T16:52:57.601Z,26.75
2023-05-25T16:55:25.443Z,26.76
2023-05-25T16:57:53.005Z,26.80
2023-05-25T17:00:21.040Z,26.87
2023-05-25T17:02:48.719Z,26.96
2023-05-25T17:05:16.391Z,26.91
2023-05-25T17:07:43.952Z,26.91
2023-05-25T17:10:11.767Z,26.85
2023-05-25T17:12:39.949Z,26.75
2023-05-25T17:15:08.370Z,26.71
2023-05-25T17:17:35.959Z,26.64
2023-05-25T17:20:04.113Z,26.58
2023-05-25T17:22:31.726Z,26.48
2023-05-25T17:24:59.562Z,26.39
2023-05-25T17:27:27.140Z,26.27
2023-05-25T17:29:54.781Z,26.19
2023-05-25T17:32:22.379Z,26.15
2023-05-25T17:34:49.905Z,26.13
2023-05-25T17:37:19.026Z,26.11
2023-05-25T17:39:46.709Z,26.03
2023-05-25T17:42:14.384Z,25.96
2023-05-25T17:44:42.450Z,25.89
2023-05-25T17:47:11.303Z,25.85
2023-05-25T17:49:39.075Z,25.75
2023-05-25T17:52:07.534Z,25.59
2023-05-25T17:54:35.554Z,25.48
2023-05-25T17:57:03.485Z,25.39
2023-05-25T17:59:31.087Z,25.29
2023-05-25T18:01:58.819Z,25.22
2023-05-25T18:04:26.483Z,25.14
2023-05-25T18:06:54.010Z,25.05
2023-05-25T18:09:21.791Z,24.93
2023-05-25T18:11:49.359Z,24.85
2023-05-25T18:14:16.944Z,24.79
2023-05-25T18:16:44.908Z,24.70
2023-05-25T18:19:14.677Z,24.58
2023-05-25T18:21:42.248Z,24.50
2023-05-25T18:24:10.377Z,24.42
2023-05-25T18:26:38.033Z,24.32
2023-05-25T18:29:05.630Z,24.25
2023-05-25T18:31:33.396Z,24.15
2023-05-25T18:34:01.114Z,24.11
2023-05-25T18:36:28.860Z,24.04
2023-05-25T18:38:56.433Z,23.95
2023-05-25T18:41:25.196Z,23.89
2023-05-25T18:43:52.746Z,23.85
2023-05-25T18:46:20.648Z,23.83
2023-05-25T18:48:48.284Z,23.78
2023-05-25T18:51:17.068Z,23.70
2023-05-25T18:53:44.868Z,23.63
2023-05-25T18:56:12.393Z,23.58
2023-05-25T18:58:39.999Z,23.55
2023-05-25T19:01:07.566Z,23.50
2023-05-25T19:03:35.411Z,23.47
2023-05-25T19:06:03.048Z,23.44
2023-05-25T19:08:30.638Z,23.42
2023-05-25T19:10:58.158Z,23.38
2023-05-25T19:13:25.715Z,23.33
2023-05-25T19:15:53.256Z,23.29
2023-05-25T19:18:20.918Z,23.22
2023-05-25T19:20:48.730Z,23.18
2023-05-25T19:23:16.468Z,23.13
2023-05-25T19:25:44.238Z,23.10
2023-05-25T19:28:12.053Z,23.04
2023-05-25T19:30:39.597Z,22.99
2023-05-25T19:33:07.213Z,22.91
2023-05-25T19:35:34.804Z,22.84
2023-05-25T19:38:02.545Z,22.78
2023-05-25T19:40:30.713Z,22.74
2023-05-25T19:42:58.270Z,22.69
2023-05-25T19:45:26.000Z,22.64
2023-05-25T19:47:54.391Z,22.59
2023-05-25T19:50:21.979Z,22.55
2023-05-25T19:52:49.602Z,22.52
2023-05-25T19:55:17.232Z,22.46
2023-05-25T19:57:44.810Z,22.39
2023-05-25T20:00:21.145Z,22.34
2023-05-25T20:02:53.876Z,22.32
2023-05-25T20:05:21.592Z,22.27
2023-05-25T20:07:50.872Z,22.21
2023-05-25T20:10:18.700Z,22.15
2023-05-25T20:12:46.848Z,22.08
2023-05-25T20:15:14.474Z,22.02
2023-05-25T20:17:42.041Z,21.98
2023-05-25T20:20:10.062Z,21.91
2023-05-25T20:22:37.687Z,21.83
2023-05-25T20:25:05.674Z,21.74
2023-05-25T20:27:33.214Z,21.68
2023-05-25T20:30:00.756Z,21.63
2023-05-25T20:32:28.406Z,21.59
2023-05-25T20:34:57.221Z,21.53
2023-05-25T20:37:24.797Z,21.49
2023-05-25T20:39:52.328Z,21.46
2023-05-25T20:42:19.915Z,21.42
2023-05-25T20:44:47.447Z,21.40
2023-05-25T20:47:15.010Z,21.36
2023-05-25T20:49:42.599Z,21.32
2023-05-25T20:52:10.170Z,21.28
2023-05-25T20:54:41.636Z,21.24
2023-05-25T20:57:09.208Z,21.20
2023-05-25T20:59:37.083Z,21.16
2023-05-25T21:02:04.935Z,21.11
2023-05-25T21:04:32.660Z,21.04
2023-05-25T21:07:00.623Z,20.99
2023-05-25T21:09:28.221Z,20.94
2023-05-25T21:11:55.812Z,20.91
2023-05-25T21:14:23.375Z,20.87
2023-05-25T21:16:51.284Z,20.80
2023-05-25T21:19:18.889Z,20.72
2023-05-25T21:21:46.430Z,20.64
2023-05-25T21:24:13.965Z,20.58
2023-05-25T21:26:41.671Z,20.51
2023-05-25T21:29:09.264Z,20.42
2023-05-25T21:31:36.935Z,20.36
2023-05-25T21:34:04.552Z,20.31
2023-05-25T21:36:32.426Z,20.26
2023-05-25T21:39:00.032Z,20.20
2023-05-25T21:41:28.447Z,20.15
2023-05-25T21:43:55.985Z,20.12
2023-05-25T21:46:23.521Z,20.08
2023-05-25T21:48:51.165Z,20.01
2023-05-25T21:51:18.685Z,19.97
2023-05-25T21:53:46.297Z,19.94
2023-05-25T21:56:13.834Z,19.92
2023-05-25T21:58:41.354Z,19.85
2023-05-25T22:01:08.964Z,19.81
2023-05-25T22:03:36.546Z,19.75
2023-05-25T22:06:04.434Z,19.71
2023-05-25T22:08:31.999Z,19.69
2023-05-25T22:10:59.523Z,19.66
2023-05-25T22:13:27.089Z,19.67
2023-05-25T22:15:54.635Z,19.66
2023-05-25T22:18:22.184Z,19.64
2023-05-25T22:20:49.914Z,19.62
2023-05-25T22:23:17.668Z,19.58
2023-05-25T22:25:45.579Z,19.56
2023-05-25T22:28:14.363Z,19.54
2023-05-25T22:30:42.356Z,19.53
2023-05-25T22:33:10.162Z,19.50
2023-05-25T22:35:37.889Z,19.50
2023-05-25T22:38:05.667Z,19.46
2023-05-25T22:40:33.243Z,19.43
2023-05-25T22:43:00.886Z,19.42
2023-05-25T22:45:28.508Z,19.39
2023-05-25T22:47:56.079Z,19.39
2023-05-25T22:50:23.630Z,19.38
2023-05-25T22:52:51.188Z,19.39
2023-05-25T22:55:18.737Z,19.40
2023-05-25T22:57:46.356Z,19.39
2023-05-25T23:00:14.209Z,19.38
2023-05-25T23:02:41.881Z,19.37
2023-05-25T23:05:10.964Z,19.35
2023-05-25T23:07:38.670Z,19.35
2023-05-25T23:10:08.000Z,19.33
2023-05-25T23:12:35.613Z,19.30
2023-05-25T23:15:04.017Z,19.26
2023-05-25T23:17:32.533Z,19.26
2023-05-25T23:20:00.195Z,19.20
2023-05-25T23:22:28.097Z,19.16
2023-05-25T23:24:55.673Z,19.05
2023-05-25T23:27:23.213Z,18.99
2023-05-25T23:29:50.766Z,18.91
2023-05-25T23:32:18.385Z,18.84
2023-05-25T23:34:45.972Z,18.81
2023-05-25T23:37:13.556Z,18.79
2023-05-25T23:39:41.090Z,18.80
2023-05-25T23:42:08.638Z,18.80
2023-05-25T23:44:36.232Z,18.80
2023-05-25T23:47:05.681Z,18.79
2023-05-25T23:49:33.275Z,18.81
2023-05-25T23:52:01.457Z,18.78
2023-05-25T23:54:28.999Z,18.73
2023-05-25T23:56:56.535Z,18.69
2023-05-25T23:59:24.107Z,18.68
